TimePDT,TemperatureF,Dew PointF,Humidity,Sea Level PressureIn,VisibilityMPH,Wind Direction,Wind SpeedMPH,Gust SpeedMPH,PrecipitationIn,Events,Conditions,WindDirDegrees,DateUTC
12:53 AM,55.9,48.9,77,30.01,10.0,WNW,6.9,-,N/A,,Clear,300,2012-09-07 07:53:00
1:53 AM,55.9,48.9,77,30.00,10.0,NW,6.9,-,N/A,,Clear,310,2012-09-07 08:53:00
2:53 AM,55.0,48.9,80,30.00,10.0,NW,5.8,-,N/A,,Clear,320,2012-09-07 09:53:00
3:53 AM,55.0,48.9,80,30.01,10.0,NW,4.6,-,N/A,,Clear,310,2012-09-07 10:53:00
4:53 AM,55.0,48.9,80,30.01,10.0,WNW,4.6,-,N/A,,Partly Cloudy,300,2012-09-07 11:53:00
5:53 AM,55.0,48.9,80,30.03,10.0,WNW,4.6,-,N/A,,Clear,290,2012-09-07 12:53:00
6:53 AM,55.0,48.9,80,30.04,10.0,NW,3.5,-,N/A,,Clear,310,2012-09-07 13:53:00
7:53 AM,57.0,50.0,77,30.06,10.0,WNW,5.8,-,N/A,,Clear,290,2012-09-07 14:53:00
8:53 AM,60.1,51.1,72,30.06,10.0,WNW,3.5,-,N/A,,Clear,300,2012-09-07 15:53:00
9:53 AM,63.0,51.1,65,30.07,10.0,SSW,3.5,-,N/A,,Clear,200,2012-09-07 16:53:00
10:53 AM,69.1,51.1,53,30.06,10.0,WSW,3.5,-,N/A,,Clear,240,2012-09-07 17:53:00
11:53 AM,73.0,52.0,48,30.05,10.0,Variable,3.5,-,N/A,,Clear,0,2012-09-07 18:53:00
12:53 PM,78.1,51.1,39,30.03,10.0,SW,4.6,-,N/A,,Clear,220,2012-09-07 19:53:00
1:53 PM,82.9,48.0,29,30.01,10.0,West,5.8,-,N/A,,Clear,270,2012-09-07 20:53:00
2:53 PM,86.0,46.0,25,29.99,10.0,WNW,8.1,-,N/A,,Clear,290,2012-09-07 21:53:00
3:53 PM,84.0,48.9,29,29.98,10.0,WNW,11.5,-,N/A,,Clear,300,2012-09-07 22:53:00
4:53 PM,82.0,46.9,29,29.97,10.0,WNW,11.5,-,N/A,,Clear,290,2012-09-07 23:53:00
5:53 PM,79.0,46.9,32,29.97,10.0,WNW,11.5,-,N/A,,Clear,290,2012-09-08 00:53:00
6:53 PM,73.9,46.9,38,29.97,10.0,West,10.4,-,N/A,,Clear,280,2012-09-08 01:53:00
7:53 PM,69.1,48.9,49,29.98,10.0,WNW,11.5,-,N/A,,Clear,300,2012-09-08 02:53:00
8:53 PM,66.0,50.0,56,30.01,10.0,WNW,11.5,-,N/A,,Clear,290,2012-09-08 03:53:00
9:53 PM,63.0,48.9,60,30.02,10.0,WNW,11.5,-,N/A,,Clear,290,2012-09-08 04:53:00
10:53 PM,61.0,50.0,67,30.03,10.0,WNW,13.8,-,N/A,,Clear,300,2012-09-08 05:53:00
11:53 PM,60.1,50.0,69,30.03,10.0,WNW,9.2,-,N/A,,Clear,290,2012-09-08 06:53:00